sensor_id;sensor_type;location;lat;lon;timestamp;P1;durP1;ratioP1;P2;durP2;ratioP2
33690;SDS011;20026;50.058;18.428;2024-03-08T00:00:27;81.90;;;37.70;;
33690;SDS011;20026;50.058;18.428;2024-03-08T00:02:54;76.03;;;36.92;;
33690;SDS011;20026;50.058;18.428;2024-03-08T00:05:20;76.35;;;38.28;;
33690;SDS011;20026;50.058;18.428;2024-03-08T00:07:46;83.07;;;37.45;;
33690;SDS011;20026;50.058;18.428;2024-03-08T00:10:14;82.65;;;39.25;;
33690;SDS011;20026;50.058;18.428;2024-03-08T00:12:40;83.22;;;42.78;;
33690;SDS011;20026;50.058;18.428;2024-03-08T00:15:09;78.63;;;41.95;;
33690;SDS011;20026;50.058;18.428;2024-03-08T00:20:33;71.35;;;37.33;;
33690;SDS011;20026;50.058;18.428;2024-03-08T00:33:46;77.75;;;39.00;;
33690;SDS011;20026;50.058;18.428;2024-03-08T00:36:17;74.63;;;36.83;;
33690;SDS011;20026;50.058;18.428;2024-03-08T00:38:52;80.40;;;39.65;;
33690;SDS011;20026;50.058;18.428;2024-03-08T00:41:20;82.05;;;38.92;;
33690;SDS011;20026;50.058;18.428;2024-03-08T00:43:50;82.07;;;39.53;;
33690;SDS011;20026;50.058;18.428;2024-03-08T01:07:55;84.07;;;45.42;;
33690;SDS011;20026;50.058;18.428;2024-03-08T01:10:22;76.72;;;42.22;;
33690;SDS011;20026;50.058;18.428;2024-03-08T01:12:52;78.63;;;42.38;;
33690;SDS011;20026;50.058;18.428;2024-03-08T01:15:21;87.32;;;43.63;;
33690;SDS011;20026;50.058;18.428;2024-03-08T01:17:49;85.07;;;43.75;;
33690;SDS011;20026;50.058;18.428;2024-03-08T01:20:15;80.50;;;43.15;;
33690;SDS011;20026;50.058;18.428;2024-03-08T01:22:44;75.53;;;39.88;;
33690;SDS011;20026;50.058;18.428;2024-03-08T01:25:10;78.32;;;41.00;;
33690;SDS011;20026;50.058;18.428;2024-03-08T01:27:41;80.65;;;43.45;;
33690;SDS011;20026;50.058;18.428;2024-03-08T01:35:41;89.25;;;46.72;;
33690;SDS011;20026;50.058;18.428;2024-03-08T01:38:09;92.00;;;49.05;;
33690;SDS011;20026;50.058;18.428;2024-03-08T01:40:37;85.57;;;43.40;;
33690;SDS011;20026;50.058;18.428;2024-03-08T01:43:18;86.75;;;46.22;;
33690;SDS011;20026;50.058;18.428;2024-03-08T01:45:45;79.70;;;40.58;;
33690;SDS011;20026;50.058;18.428;2024-03-08T01:48:11;78.05;;;39.78;;
33690;SDS011;20026;50.058;18.428;2024-03-08T01:50:38;82.57;;;43.10;;
33690;SDS011;20026;50.058;18.428;2024-03-08T01:53:05;82.07;;;41.13;;
33690;SDS011;20026;50.058;18.428;2024-03-08T01:55:31;76.60;;;39.78;;
33690;SDS011;20026;50.058;18.428;2024-03-08T01:57:58;81.32;;;40.70;;
33690;SDS011;20026;50.058;18.428;2024-03-08T02:00:25;73.60;;;39.50;;
33690;SDS011;20026;50.058;18.428;2024-03-08T02:02:55;79.85;;;38.47;;
33690;SDS011;20026;50.058;18.428;2024-03-08T02:05:21;77.28;;;39.58;;
33690;SDS011;20026;50.058;18.428;2024-03-08T02:07:48;78.13;;;39.53;;
33690;SDS011;20026;50.058;18.428;2024-03-08T02:10:15;79.25;;;40.47;;
33690;SDS011;20026;50.058;18.428;2024-03-08T02:12:41;76.80;;;38.88;;
33690;SDS011;20026;50.058;18.428;2024-03-08T02:15:07;71.25;;;38.20;;
33690;SDS011;20026;50.058;18.428;2024-03-08T02:17:33;75.40;;;37.70;;
33690;SDS011;20026;50.058;18.428;2024-03-08T02:20:00;65.20;;;33.88;;
33690;SDS011;20026;50.058;18.428;2024-03-08T02:22:29;71.68;;;37.83;;
33690;SDS011;20026;50.058;18.428;2024-03-08T02:24:57;72.75;;;37.67;;
33690;SDS011;20026;50.058;18.428;2024-03-08T02:27:26;75.00;;;38.45;;
33690;SDS011;20026;50.058;18.428;2024-03-08T02:29:55;82.68;;;39.05;;
33690;SDS011;20026;50.058;18.428;2024-03-08T02:32:25;80.25;;;40.25;;
33690;SDS011;20026;50.058;18.428;2024-03-08T02:34:55;79.40;;;40.03;;
33690;SDS011;20026;50.058;18.428;2024-03-08T02:37:24;76.30;;;39.95;;
33690;SDS011;20026;50.058;18.428;2024-03-08T02:39:51;74.47;;;38.72;;
33690;SDS011;20026;50.058;18.428;2024-03-08T02:42:17;79.05;;;39.10;;
33690;SDS011;20026;50.058;18.428;2024-03-08T02:44:46;82.57;;;44.35;;
33690;SDS011;20026;50.058;18.428;2024-03-08T02:47:12;92.10;;;43.45;;
33690;SDS011;20026;50.058;18.428;2024-03-08T02:49:38;83.85;;;41.78;;
33690;SDS011;20026;50.058;18.428;2024-03-08T02:52:09;76.32;;;38.92;;
33690;SDS011;20026;50.058;18.428;2024-03-08T02:54:36;79.03;;;39.08;;
33690;SDS011;20026;50.058;18.428;2024-03-08T02:57:03;78.40;;;38.13;;
33690;SDS011;20026;50.058;18.428;2024-03-08T02:59:32;77.55;;;38.47;;
33690;SDS011;20026;50.058;18.428;2024-03-08T03:01:58;80.15;;;39.10;;
33690;SDS011;20026;50.058;18.428;2024-03-08T03:04:26;79.70;;;40.55;;
33690;SDS011;20026;50.058;18.428;2024-03-08T03:06:52;79.88;;;41.70;;
33690;SDS011;20026;50.058;18.428;2024-03-08T03:09:19;86.85;;;45.30;;
33690;SDS011;20026;50.058;18.428;2024-03-08T03:11:52;83.55;;;42.90;;
33690;SDS011;20026;50.058;18.428;2024-03-08T03:14:18;85.35;;;43.05;;
33690;SDS011;20026;50.058;18.428;2024-03-08T03:16:44;78.85;;;40.70;;
33690;SDS011;20026;50.058;18.428;2024-03-08T03:19:11;83.65;;;40.55;;
33690;SDS011;20026;50.058;18.428;2024-03-08T03:21:37;81.18;;;41.47;;
33690;SDS011;20026;50.058;18.428;2024-03-08T03:24:05;75.65;;;40.88;;
33690;SDS011;20026;50.058;18.428;2024-03-08T03:26:35;77.03;;;41.33;;
33690;SDS011;20026;50.058;18.428;2024-03-08T03:29:04;74.40;;;39.97;;
33690;SDS011;20026;50.058;18.428;2024-03-08T03:31:31;75.47;;;39.03;;
33690;SDS011;20026;50.058;18.428;2024-03-08T03:33:57;72.03;;;34.38;;
33690;SDS011;20026;50.058;18.428;2024-03-08T03:36:27;66.18;;;33.63;;
33690;SDS011;20026;50.058;18.428;2024-03-08T03:38:53;78.22;;;36.83;;
33690;SDS011;20026;50.058;18.428;2024-03-08T03:41:34;84.07;;;39.25;;
33690;SDS011;20026;50.058;18.428;2024-03-08T03:44:00;72.55;;;35.58;;
33690;SDS011;20026;50.058;18.428;2024-03-08T03:46:26;78.85;;;39.47;;
33690;SDS011;20026;50.058;18.428;2024-03-08T03:48:53;81.88;;;41.60;;
33690;SDS011;20026;50.058;18.428;2024-03-08T03:51:20;76.00;;;37.80;;
33690;SDS011;20026;50.058;18.428;2024-03-08T03:53:47;74.30;;;37.92;;
33690;SDS011;20026;50.058;18.428;2024-03-08T03:56:13;84.05;;;39.08;;
33690;SDS011;20026;50.058;18.428;2024-03-08T03:58:39;82.63;;;38.95;;
33690;SDS011;20026;50.058;18.428;2024-03-08T04:01:06;84.22;;;42.47;;
33690;SDS011;20026;50.058;18.428;2024-03-08T04:03:36;63.53;;;31.35;;
33690;SDS011;20026;50.058;18.428;2024-03-08T04:06:04;83.63;;;40.30;;
33690;SDS011;20026;50.058;18.428;2024-03-08T04:08:31;81.45;;;43.17;;
33690;SDS011;20026;50.058;18.428;2024-03-08T04:11:00;81.07;;;42.05;;
33690;SDS011;20026;50.058;18.428;2024-03-08T04:13:31;81.95;;;44.30;;
33690;SDS011;20026;50.058;18.428;2024-03-08T04:15:58;84.32;;;45.42;;
33690;SDS011;20026;50.058;18.428;2024-03-08T04:18:25;100.18;;;49.83;;
33690;SDS011;20026;50.058;18.428;2024-03-08T04:20:51;94.22;;;49.42;;
33690;SDS011;20026;50.058;18.428;2024-03-08T04:23:17;101.30;;;51.75;;
33690;SDS011;20026;50.058;18.428;2024-03-08T04:25:43;86.65;;;47.45;;
33690;SDS011;20026;50.058;18.428;2024-03-08T04:28:09;83.50;;;43.58;;
33690;SDS011;20026;50.058;18.428;2024-03-08T04:30:37;81.18;;;43.03;;
33690;SDS011;20026;50.058;18.428;2024-03-08T04:33:04;79.22;;;43.25;;
33690;SDS011;20026;50.058;18.428;2024-03-08T04:35:31;86.65;;;45.80;;
33690;SDS011;20026;50.058;18.428;2024-03-08T04:37:58;88.90;;;47.53;;
33690;SDS011;20026;50.058;18.428;2024-03-08T04:40:25;91.93;;;46.58;;
33690;SDS011;20026;50.058;18.428;2024-03-08T04:42:51;84.78;;;44.30;;
33690;SDS011;20026;50.058;18.428;2024-03-08T04:45:18;73.72;;;39.53;;
33690;SDS011;20026;50.058;18.428;2024-03-08T04:47:47;72.22;;;38.00;;
33690;SDS011;20026;50.058;18.428;2024-03-08T04:50:34;78.38;;;40.35;;
33690;SDS011;20026;50.058;18.428;2024-03-08T04:53:03;80.45;;;42.92;;
33690;SDS011;20026;50.058;18.428;2024-03-08T04:55:33;77.10;;;38.58;;
33690;SDS011;20026;50.058;18.428;2024-03-08T04:58:00;78.82;;;40.38;;
33690;SDS011;20026;50.058;18.428;2024-03-08T05:00:32;76.05;;;39.92;;
33690;SDS011;20026;50.058;18.428;2024-03-08T05:03:01;72.25;;;39.65;;
33690;SDS011;20026;50.058;18.428;2024-03-08T05:05:27;73.40;;;40.38;;
33690;SDS011;20026;50.058;18.428;2024-03-08T05:07:54;75.22;;;39.10;;
33690;SDS011;20026;50.058;18.428;2024-03-08T05:10:20;75.47;;;40.88;;
33690;SDS011;20026;50.058;18.428;2024-03-08T05:12:46;75.47;;;40.63;;
33690;SDS011;20026;50.058;18.428;2024-03-08T05:15:13;72.70;;;38.55;;
33690;SDS011;20026;50.058;18.428;2024-03-08T05:17:41;60.65;;;31.00;;
33690;SDS011;20026;50.058;18.428;2024-03-08T05:20:09;82.10;;;41.88;;
33690;SDS011;20026;50.058;18.428;2024-03-08T05:22:38;77.30;;;40.35;;
33690;SDS011;20026;50.058;18.428;2024-03-08T05:25:07;72.50;;;38.38;;
33690;SDS011;20026;50.058;18.428;2024-03-08T05:27:42;76.10;;;39.88;;
33690;SDS011;20026;50.058;18.428;2024-03-08T05:30:08;82.22;;;41.08;;
33690;SDS011;20026;50.058;18.428;2024-03-08T05:32:40;76.82;;;40.55;;
33690;SDS011;20026;50.058;18.428;2024-03-08T05:37:35;67.68;;;35.22;;
33690;SDS011;20026;50.058;18.428;2024-03-08T05:40:01;65.80;;;36.08;;
33690;SDS011;20026;50.058;18.428;2024-03-08T05:42:34;69.28;;;37.03;;
33690;SDS011;20026;50.058;18.428;2024-03-08T05:45:18;74.05;;;37.65;;
33690;SDS011;20026;50.058;18.428;2024-03-08T05:50:52;73.28;;;36.63;;
33690;SDS011;20026;50.058;18.428;2024-03-08T05:56:00;86.32;;;39.33;;
33690;SDS011;20026;50.058;18.428;2024-03-08T05:58:29;77.20;;;39.95;;
33690;SDS011;20026;50.058;18.428;2024-03-08T06:01:08;92.63;;;40.20;;
33690;SDS011;20026;50.058;18.428;2024-03-08T06:04:12;96.70;;;38.85;;
33690;SDS011;20026;50.058;18.428;2024-03-08T06:06:45;82.72;;;38.38;;
33690;SDS011;20026;50.058;18.428;2024-03-08T06:09:11;83.82;;;39.10;;
33690;SDS011;20026;50.058;18.428;2024-03-08T06:11:41;81.60;;;38.85;;
33690;SDS011;20026;50.058;18.428;2024-03-08T06:14:10;89.38;;;39.67;;
33690;SDS011;20026;50.058;18.428;2024-03-08T06:16:36;102.28;;;40.75;;
33690;SDS011;20026;50.058;18.428;2024-03-08T06:19:03;90.03;;;43.83;;
33690;SDS011;20026;50.058;18.428;2024-03-08T06:21:30;97.32;;;44.92;;
33690;SDS011;20026;50.058;18.428;2024-03-08T06:23:57;102.63;;;48.20;;
33690;SDS011;20026;50.058;18.428;2024-03-08T06:26:26;85.07;;;42.53;;
33690;SDS011;20026;50.058;18.428;2024-03-08T06:28:55;92.95;;;46.17;;
33690;SDS011;20026;50.058;18.428;2024-03-08T06:31:21;86.75;;;43.75;;
33690;SDS011;20026;50.058;18.428;2024-03-08T06:33:47;84.05;;;41.50;;
33690;SDS011;20026;50.058;18.428;2024-03-08T06:36:19;81.22;;;40.60;;
33690;SDS011;20026;50.058;18.428;2024-03-08T06:38:49;77.88;;;40.13;;
33690;SDS011;20026;50.058;18.428;2024-03-08T06:41:15;79.97;;;38.03;;
33690;SDS011;20026;50.058;18.428;2024-03-08T06:46:23;88.47;;;37.40;;
33690;SDS011;20026;50.058;18.428;2024-03-08T06:51:18;80.80;;;34.53;;
33690;SDS011;20026;50.058;18.428;2024-03-08T06:53:45;74.88;;;35.20;;
33690;SDS011;20026;50.058;18.428;2024-03-08T06:56:12;71.57;;;34.47;;
33690;SDS011;20026;50.058;18.428;2024-03-08T06:58:47;73.15;;;31.30;;
33690;SDS011;20026;50.058;18.428;2024-03-08T07:01:14;70.22;;;31.83;;
33690;SDS011;20026;50.058;18.428;2024-03-08T07:03:45;61.08;;;30.00;;
33690;SDS011;20026;50.058;18.428;2024-03-08T07:06:11;71.07;;;34.08;;
33690;SDS011;20026;50.058;18.428;2024-03-08T07:08:38;68.45;;;31.85;;
33690;SDS011;20026;50.058;18.428;2024-03-08T07:11:04;58.90;;;31.48;;
33690;SDS011;20026;50.058;18.428;2024-03-08T07:13:30;62.90;;;31.38;;
33690;SDS011;20026;50.058;18.428;2024-03-08T07:15:56;54.97;;;29.45;;
33690;SDS011;20026;50.058;18.428;2024-03-08T07:18:25;80.68;;;36.30;;
33690;SDS011;20026;50.058;18.428;2024-03-08T07:20:55;63.45;;;29.85;;
33690;SDS011;20026;50.058;18.428;2024-03-08T07:23:22;76.35;;;29.02;;
33690;SDS011;20026;50.058;18.428;2024-03-08T07:26:07;69.07;;;31.48;;
33690;SDS011;20026;50.058;18.428;2024-03-08T07:28:42;59.20;;;28.63;;
33690;SDS011;20026;50.058;18.428;2024-03-08T07:31:43;55.92;;;26.02;;
33690;SDS011;20026;50.058;18.428;2024-03-08T07:34:19;60.75;;;27.52;;
33690;SDS011;20026;50.058;18.428;2024-03-08T07:36:52;65.32;;;28.73;;
33690;SDS011;20026;50.058;18.428;2024-03-08T07:39:21;56.13;;;27.10;;
33690;SDS011;20026;50.058;18.428;2024-03-08T07:41:48;61.42;;;28.00;;
33690;SDS011;20026;50.058;18.428;2024-03-08T07:44:17;56.40;;;26.77;;
33690;SDS011;20026;50.058;18.428;2024-03-08T07:46:43;42.67;;;23.98;;
33690;SDS011;20026;50.058;18.428;2024-03-08T07:49:09;48.08;;;23.90;;
33690;SDS011;20026;50.058;18.428;2024-03-08T07:51:37;40.10;;;22.65;;
33690;SDS011;20026;50.058;18.428;2024-03-08T07:54:03;34.40;;;21.20;;
33690;SDS011;20026;50.058;18.428;2024-03-08T07:56:29;42.85;;;23.17;;
33690;SDS011;20026;50.058;18.428;2024-03-08T07:58:56;41.30;;;22.88;;
33690;SDS011;20026;50.058;18.428;2024-03-08T08:01:23;54.60;;;25.95;;
33690;SDS011;20026;50.058;18.428;2024-03-08T08:03:49;48.58;;;23.83;;
33690;SDS011;20026;50.058;18.428;2024-03-08T08:06:15;33.63;;;19.92;;
33690;SDS011;20026;50.058;18.428;2024-03-08T08:08:42;30.85;;;18.38;;
33690;SDS011;20026;50.058;18.428;2024-03-08T08:11:08;30.67;;;19.05;;
33690;SDS011;20026;50.058;18.428;2024-03-08T08:13:36;31.33;;;18.27;;
33690;SDS011;20026;50.058;18.428;2024-03-08T08:16:03;79.15;;;33.35;;
33690;SDS011;20026;50.058;18.428;2024-03-08T08:18:30;63.30;;;30.50;;
33690;SDS011;20026;50.058;18.428;2024-03-08T08:20:58;123.95;;;49.53;;
33690;SDS011;20026;50.058;18.428;2024-03-08T08:23:27;30.85;;;16.70;;
33690;SDS011;20026;50.058;18.428;2024-03-08T08:25:54;42.45;;;22.15;;
33690;SDS011;20026;50.058;18.428;2024-03-08T08:28:28;42.63;;;22.92;;
33690;SDS011;20026;50.058;18.428;2024-03-08T08:30:55;44.20;;;22.15;;
33690;SDS011;20026;50.058;18.428;2024-03-08T08:33:22;29.38;;;18.27;;
33690;SDS011;20026;50.058;18.428;2024-03-08T08:35:50;29.20;;;17.33;;
33690;SDS011;20026;50.058;18.428;2024-03-08T08:38:19;30.15;;;16.90;;
33690;SDS011;20026;50.058;18.428;2024-03-08T08:40:45;32.13;;;18.50;;
33690;SDS011;20026;50.058;18.428;2024-03-08T08:43:12;44.40;;;23.08;;
33690;SDS011;20026;50.058;18.428;2024-03-08T08:45:39;32.03;;;18.48;;
33690;SDS011;20026;50.058;18.428;2024-03-08T08:48:05;36.65;;;21.08;;
33690;SDS011;20026;50.058;18.428;2024-03-08T08:50:31;33.25;;;19.02;;
33690;SDS011;20026;50.058;18.428;2024-03-08T08:52:57;27.40;;;17.30;;
33690;SDS011;20026;50.058;18.428;2024-03-08T08:55:23;29.42;;;18.15;;
33690;SDS011;20026;50.058;18.428;2024-03-08T08:57:51;34.53;;;18.95;;
33690;SDS011;20026;50.058;18.428;2024-03-08T09:00:21;31.17;;;19.23;;
33690;SDS011;20026;50.058;18.428;2024-03-08T09:02:51;29.38;;;17.77;;
33690;SDS011;20026;50.058;18.428;2024-03-08T09:05:20;29.23;;;18.33;;
33690;SDS011;20026;50.058;18.428;2024-03-08T09:07:49;31.05;;;18.23;;
33690;SDS011;20026;50.058;18.428;2024-03-08T09:10:15;30.65;;;17.08;;
33690;SDS011;20026;50.058;18.428;2024-03-08T09:12:41;30.73;;;18.92;;
33690;SDS011;20026;50.058;18.428;2024-03-08T09:15:07;45.63;;;25.77;;
33690;SDS011;20026;50.058;18.428;2024-03-08T09:17:35;29.15;;;19.02;;
33690;SDS011;20026;50.058;18.428;2024-03-08T09:20:04;32.33;;;20.43;;
33690;SDS011;20026;50.058;18.428;2024-03-08T09:22:31;28.92;;;18.30;;
33690;SDS011;20026;50.058;18.428;2024-03-08T09:24:57;51.08;;;22.45;;
33690;SDS011;20026;50.058;18.428;2024-03-08T09:27:23;41.55;;;20.23;;
33690;SDS011;20026;50.058;18.428;2024-03-08T09:29:50;41.25;;;21.52;;
33690;SDS011;20026;50.058;18.428;2024-03-08T09:32:16;35.88;;;18.75;;
33690;SDS011;20026;50.058;18.428;2024-03-08T09:34:42;29.30;;;17.77;;
33690;SDS011;20026;50.058;18.428;2024-03-08T09:37:08;36.85;;;19.67;;
33690;SDS011;20026;50.058;18.428;2024-03-08T09:39:34;38.60;;;20.65;;
33690;SDS011;20026;50.058;18.428;2024-03-08T09:42:01;39.40;;;20.67;;
33690;SDS011;20026;50.058;18.428;2024-03-08T09:44:27;31.08;;;18.70;;
33690;SDS011;20026;50.058;18.428;2024-03-08T09:46:57;31.48;;;18.50;;
33690;SDS011;20026;50.058;18.428;2024-03-08T09:49:24;32.50;;;18.83;;
33690;SDS011;20026;50.058;18.428;2024-03-08T09:51:50;35.42;;;21.35;;
33690;SDS011;20026;50.058;18.428;2024-03-08T09:54:16;29.00;;;17.77;;
33690;SDS011;20026;50.058;18.428;2024-03-08T09:56:43;29.58;;;18.95;;
33690;SDS011;20026;50.058;18.428;2024-03-08T09:59:10;28.90;;;18.80;;
33690;SDS011;20026;50.058;18.428;2024-03-08T10:01:36;29.45;;;18.50;;
33690;SDS011;20026;50.058;18.428;2024-03-08T10:04:22;31.48;;;19.77;;
33690;SDS011;20026;50.058;18.428;2024-03-08T10:06:48;31.30;;;20.25;;
33690;SDS011;20026;50.058;18.428;2024-03-08T10:09:15;29.33;;;17.35;;
33690;SDS011;20026;50.058;18.428;2024-03-08T10:11:41;32.67;;;18.75;;
33690;SDS011;20026;50.058;18.428;2024-03-08T10:14:10;40.17;;;20.58;;
33690;SDS011;20026;50.058;18.428;2024-03-08T10:16:40;37.08;;;21.80;;
33690;SDS011;20026;50.058;18.428;2024-03-08T10:19:06;36.80;;;22.38;;
33690;SDS011;20026;50.058;18.428;2024-03-08T10:21:33;35.97;;;19.58;;
33690;SDS011;20026;50.058;18.428;2024-03-08T10:23:59;28.08;;;18.67;;
33690;SDS011;20026;50.058;18.428;2024-03-08T10:26:25;27.02;;;18.88;;
33690;SDS011;20026;50.058;18.428;2024-03-08T10:28:52;31.27;;;18.98;;
33690;SDS011;20026;50.058;18.428;2024-03-08T10:31:19;34.53;;;20.08;;
33690;SDS011;20026;50.058;18.428;2024-03-08T10:33:48;30.85;;;18.75;;
33690;SDS011;20026;50.058;18.428;2024-03-08T10:36:15;30.15;;;18.25;;
33690;SDS011;20026;50.058;18.428;2024-03-08T10:38:42;34.05;;;18.52;;
33690;SDS011;20026;50.058;18.428;2024-03-08T10:41:12;27.73;;;17.65;;
33690;SDS011;20026;50.058;18.428;2024-03-08T10:46:20;33.83;;;19.48;;
33690;SDS011;20026;50.058;18.428;2024-03-08T10:48:48;47.65;;;26.27;;
33690;SDS011;20026;50.058;18.428;2024-03-08T10:51:15;38.88;;;23.10;;
33690;SDS011;20026;50.058;18.428;2024-03-08T10:53:41;26.63;;;16.75;;
33690;SDS011;20026;50.058;18.428;2024-03-08T10:56:08;26.42;;;17.50;;
33690;SDS011;20026;50.058;18.428;2024-03-08T10:58:35;28.08;;;17.25;;
33690;SDS011;20026;50.058;18.428;2024-03-08T11:01:02;30.20;;;19.02;;
33690;SDS011;20026;50.058;18.428;2024-03-08T11:06:13;37.40;;;21.52;;
33690;SDS011;20026;50.058;18.428;2024-03-08T11:08:40;36.75;;;21.77;;
33690;SDS011;20026;50.058;18.428;2024-03-08T11:11:09;33.78;;;20.65;;
33690;SDS011;20026;50.058;18.428;2024-03-08T11:13:52;36.55;;;21.05;;
33690;SDS011;20026;50.058;18.428;2024-03-08T11:18:54;25.60;;;16.70;;
33690;SDS011;20026;50.058;18.428;2024-03-08T11:21:22;43.13;;;21.77;;
33690;SDS011;20026;50.058;18.428;2024-03-08T11:26:20;40.25;;;19.23;;
33690;SDS011;20026;50.058;18.428;2024-03-08T11:28:47;39.47;;;21.45;;
33690;SDS011;20026;50.058;18.428;2024-03-08T11:33:39;29.45;;;17.55;;
33690;SDS011;20026;50.058;18.428;2024-03-08T11:38:43;27.48;;;17.98;;
33690;SDS011;20026;50.058;18.428;2024-03-08T11:41:09;27.70;;;18.10;;
33690;SDS011;20026;50.058;18.428;2024-03-08T11:46:10;32.00;;;18.75;;
33690;SDS011;20026;50.058;18.428;2024-03-08T11:48:40;27.40;;;16.20;;
33690;SDS011;20026;50.058;18.428;2024-03-08T11:51:09;28.33;;;16.63;;
33690;SDS011;20026;50.058;18.428;2024-03-08T11:53:38;36.03;;;19.30;;
33690;SDS011;20026;50.058;18.428;2024-03-08T11:56:09;42.28;;;23.17;;
33690;SDS011;20026;50.058;18.428;2024-03-08T11:58:36;29.45;;;17.98;;
33690;SDS011;20026;50.058;18.428;2024-03-08T12:01:03;29.73;;;17.40;;
33690;SDS011;20026;50.058;18.428;2024-03-08T12:03:30;30.58;;;19.10;;
33690;SDS011;20026;50.058;18.428;2024-03-08T12:05:59;29.20;;;17.50;;
33690;SDS011;20026;50.058;18.428;2024-03-08T12:08:25;30.38;;;18.73;;
33690;SDS011;20026;50.058;18.428;2024-03-08T12:10:54;30.77;;;18.55;;
33690;SDS011;20026;50.058;18.428;2024-03-08T12:13:27;32.08;;;19.33;;
33690;SDS011;20026;50.058;18.428;2024-03-08T12:16:05;26.15;;;17.67;;
33690;SDS011;20026;50.058;18.428;2024-03-08T12:18:33;32.63;;;19.58;;
33690;SDS011;20026;50.058;18.428;2024-03-08T12:21:10;36.10;;;20.35;;
33690;SDS011;20026;50.058;18.428;2024-03-08T12:23:37;38.92;;;21.52;;
33690;SDS011;20026;50.058;18.428;2024-03-08T12:26:25;36.15;;;22.17;;
33690;SDS011;20026;50.058;18.428;2024-03-08T12:28:51;37.83;;;21.90;;
33690;SDS011;20026;50.058;18.428;2024-03-08T12:31:19;31.75;;;20.10;;
33690;SDS011;20026;50.058;18.428;2024-03-08T12:33:54;37.20;;;21.92;;
33690;SDS011;20026;50.058;18.428;2024-03-08T12:36:24;39.08;;;23.02;;
33690;SDS011;20026;50.058;18.428;2024-03-08T12:38:51;38.47;;;22.20;;
33690;SDS011;20026;50.058;18.428;2024-03-08T12:41:17;35.55;;;21.15;;
33690;SDS011;20026;50.058;18.428;2024-03-08T12:43:46;39.33;;;20.25;;
33690;SDS011;20026;50.058;18.428;2024-03-08T12:46:17;37.75;;;21.30;;
33690;SDS011;20026;50.058;18.428;2024-03-08T12:48:47;39.80;;;22.67;;
33690;SDS011;20026;50.058;18.428;2024-03-08T12:51:14;35.97;;;22.63;;
33690;SDS011;20026;50.058;18.428;2024-03-08T12:53:42;72.15;;;40.30;;
33690;SDS011;20026;50.058;18.428;2024-03-08T12:56:12;37.53;;;21.92;;
33690;SDS011;20026;50.058;18.428;2024-03-08T12:58:42;32.63;;;19.95;;
33690;SDS011;20026;50.058;18.428;2024-03-08T13:01:08;36.70;;;22.52;;
33690;SDS011;20026;50.058;18.428;2024-03-08T13:03:36;36.70;;;22.20;;
33690;SDS011;20026;50.058;18.428;2024-03-08T13:06:05;42.90;;;24.25;;
33690;SDS011;20026;50.058;18.428;2024-03-08T13:08:37;34.40;;;20.35;;
33690;SDS011;20026;50.058;18.428;2024-03-08T13:29:09;35.17;;;20.70;;
33690;SDS011;20026;50.058;18.428;2024-03-08T13:31:35;65.35;;;28.65;;
33690;SDS011;20026;50.058;18.428;2024-03-08T13:34:01;150.70;;;52.28;;
33690;SDS011;20026;50.058;18.428;2024-03-08T13:36:30;95.65;;;35.35;;
33690;SDS011;20026;50.058;18.428;2024-03-08T13:39:07;39.47;;;21.38;;
33690;SDS011;20026;50.058;18.428;2024-03-08T13:41:40;34.95;;;20.38;;
33690;SDS011;20026;50.058;18.428;2024-03-08T13:44:06;149.77;;;46.80;;
33690;SDS011;20026;50.058;18.428;2024-03-08T13:46:33;34.40;;;19.90;;
33690;SDS011;20026;50.058;18.428;2024-03-08T13:49:03;41.60;;;21.85;;
33690;SDS011;20026;50.058;18.428;2024-03-08T13:51:34;38.15;;;22.98;;
33690;SDS011;20026;50.058;18.428;2024-03-08T13:54:00;43.88;;;23.23;;
33690;SDS011;20026;50.058;18.428;2024-03-08T13:56:27;35.72;;;21.00;;
33690;SDS011;20026;50.058;18.428;2024-03-08T13:58:56;32.45;;;21.00;;
33690;SDS011;20026;50.058;18.428;2024-03-08T14:01:22;35.85;;;23.05;;
33690;SDS011;20026;50.058;18.428;2024-03-08T14:03:49;80.05;;;31.40;;
33690;SDS011;20026;50.058;18.428;2024-03-08T14:06:15;196.15;;;60.20;;
33690;SDS011;20026;50.058;18.428;2024-03-08T14:08:41;39.22;;;21.40;;
33690;SDS011;20026;50.058;18.428;2024-03-08T14:11:07;33.88;;;19.33;;
33690;SDS011;20026;50.058;18.428;2024-03-08T14:13:44;32.80;;;19.63;;
33690;SDS011;20026;50.058;18.428;2024-03-08T14:16:12;32.25;;;20.73;;
33690;SDS011;20026;50.058;18.428;2024-03-08T14:18:38;41.60;;;22.55;;
33690;SDS011;20026;50.058;18.428;2024-03-08T14:21:05;75.95;;;31.90;;
33690;SDS011;20026;50.058;18.428;2024-03-08T14:23:32;45.58;;;23.55;;
33690;SDS011;20026;50.058;18.428;2024-03-08T14:25:58;38.42;;;23.23;;
33690;SDS011;20026;50.058;18.428;2024-03-08T14:28:24;37.67;;;24.83;;
33690;SDS011;20026;50.058;18.428;2024-03-08T14:30:54;43.13;;;25.27;;
33690;SDS011;20026;50.058;18.428;2024-03-08T14:33:57;33.97;;;21.08;;
33690;SDS011;20026;50.058;18.428;2024-03-08T14:36:24;36.78;;;22.85;;
33690;SDS011;20026;50.058;18.428;2024-03-08T14:38:51;43.28;;;24.95;;
33690;SDS011;20026;50.058;18.428;2024-03-08T14:41:17;40.58;;;22.45;;
33690;SDS011;20026;50.058;18.428;2024-03-08T14:43:44;36.85;;;22.42;;
33690;SDS011;20026;50.058;18.428;2024-03-08T14:46:11;36.28;;;21.88;;
33690;SDS011;20026;50.058;18.428;2024-03-08T14:48:45;40.00;;;23.48;;
33690;SDS011;20026;50.058;18.428;2024-03-08T14:51:12;33.65;;;19.10;;
33690;SDS011;20026;50.058;18.428;2024-03-08T14:53:45;39.28;;;20.48;;
33690;SDS011;20026;50.058;18.428;2024-03-08T14:56:11;39.28;;;21.98;;
33690;SDS011;20026;50.058;18.428;2024-03-08T14:58:43;87.05;;;38.72;;
33690;SDS011;20026;50.058;18.428;2024-03-08T15:01:17;34.97;;;21.60;;
33690;SDS011;20026;50.058;18.428;2024-03-08T15:03:50;40.55;;;22.67;;
33690;SDS011;20026;50.058;18.428;2024-03-08T15:06:16;33.47;;;20.00;;
33690;SDS011;20026;50.058;18.428;2024-03-08T15:08:45;34.00;;;20.40;;
33690;SDS011;20026;50.058;18.428;2024-03-08T15:11:11;122.47;;;43.20;;
33690;SDS011;20026;50.058;18.428;2024-03-08T15:13:50;39.47;;;22.13;;
33690;SDS011;20026;50.058;18.428;2024-03-08T15:16:22;41.60;;;22.92;;
33690;SDS011;20026;50.058;18.428;2024-03-08T15:18:50;45.65;;;24.77;;
33690;SDS011;20026;50.058;18.428;2024-03-08T15:21:18;35.55;;;23.05;;
33690;SDS011;20026;50.058;18.428;2024-03-08T15:23:44;43.67;;;23.95;;
33690;SDS011;20026;50.058;18.428;2024-03-08T15:26:19;45.50;;;24.60;;
33690;SDS011;20026;50.058;18.428;2024-03-08T15:28:46;37.42;;;21.77;;
33690;SDS011;20026;50.058;18.428;2024-03-08T15:31:14;38.33;;;21.70;;
33690;SDS011;20026;50.058;18.428;2024-03-08T15:33:41;38.72;;;23.42;;
33690;SDS011;20026;50.058;18.428;2024-03-08T15:36:10;45.17;;;24.00;;
33690;SDS011;20026;50.058;18.428;2024-03-08T15:38:39;52.38;;;25.67;;
33690;SDS011;20026;50.058;18.428;2024-03-08T15:41:05;75.97;;;31.40;;
33690;SDS011;20026;50.058;18.428;2024-03-08T15:43:38;55.45;;;27.73;;
33690;SDS011;20026;50.058;18.428;2024-03-08T15:46:04;36.30;;;19.85;;